createdAt,value
2019-03-22T00:01:34.025Z,77.00
2019-03-22T00:04:02.479Z,77.00
2019-03-22T00:06:30.925Z,77.00
2019-03-22T00:08:59.374Z,76.90
2019-03-22T00:11:27.829Z,77.10
2019-03-22T00:13:56.301Z,77.00
2019-03-22T00:16:24.757Z,77.00
2019-03-22T00:18:53.232Z,77.10
2019-03-22T00:21:21.691Z,77.10
2019-03-22T00:23:50.138Z,77.00
2019-03-22T00:26:18.605Z,77.00
2019-03-22T00:28:47.143Z,77.10
2019-03-22T00:31:15.586Z,77.10
2019-03-22T00:33:44.071Z,77.00
2019-03-22T00:36:12.584Z,77.00
2019-03-22T00:38:41.082Z,77.00
2019-03-22T00:41:09.550Z,77.00
2019-03-22T00:43:37.990Z,77.00
2019-03-22T00:46:06.475Z,77.10
2019-03-22T00:48:36.575Z,77.10
2019-03-22T00:51:05.036Z,77.10
2019-03-22T00:53:33.507Z,77.00
2019-03-22T00:56:01.959Z,77.10
2019-03-22T00:58:30.430Z,76.90
2019-03-22T01:00:58.872Z,77.00
2019-03-22T01:03:27.334Z,77.10
2019-03-22T01:05:56.718Z,77.10
2019-03-22T01:08:25.159Z,77.20
2019-03-22T01:10:53.618Z,77.20
2019-03-22T01:13:22.060Z,77.20
2019-03-22T01:15:50.561Z,77.10
2019-03-22T01:18:19.108Z,77.10
2019-03-22T01:20:47.559Z,77.00
2019-03-22T01:23:16.007Z,76.90
2019-03-22T01:25:44.478Z,77.00
2019-03-22T01:28:12.988Z,76.90
2019-03-22T01:30:41.455Z,77.00
2019-03-22T01:33:09.939Z,77.00
2019-03-22T01:35:38.378Z,77.10
2019-03-22T01:38:06.835Z,77.10
2019-03-22T01:40:35.447Z,77.00
2019-03-22T01:43:03.992Z,77.10
2019-03-22T01:45:32.473Z,77.10
2019-03-22T01:48:00.974Z,77.10
2019-03-22T01:50:29.434Z,77.10
2019-03-22T01:52:57.925Z,77.00
2019-03-22T01:55:26.374Z,77.10
2019-03-22T01:57:54.832Z,77.10
2019-03-22T02:00:23.299Z,77.10
2019-03-22T02:02:51.756Z,77.80
2019-03-22T02:05:20.231Z,77.10
2019-03-22T02:07:48.680Z,77.00
2019-03-22T02:10:17.765Z,77.20
2019-03-22T02:12:46.216Z,77.20
2019-03-22T02:15:18.053Z,77.10
2019-03-22T02:17:46.509Z,77.30
2019-03-22T02:20:15.804Z,77.20
2019-03-22T02:22:44.331Z,77.20
2019-03-22T02:25:13.228Z,77.20
2019-03-22T02:27:42.391Z,77.30
2019-03-22T02:30:13.857Z,77.40
2019-03-22T02:32:42.391Z,77.30
2019-03-22T02:35:26.898Z,77.20
2019-03-22T02:37:41.266Z,77.30
2019-03-22T02:40:11.844Z,77.20
2019-03-22T02:42:40.329Z,77.30
2019-03-22T02:45:11.704Z,77.20
2019-03-22T02:47:40.211Z,77.30
2019-03-22T02:50:18.161Z,77.10
2019-03-22T02:52:41.183Z,77.20
2019-03-22T02:55:11.356Z,77.80
2019-03-22T02:57:39.810Z,77.20
2019-03-22T03:00:13.744Z,77.20
2019-03-22T03:02:42.195Z,77.30
2019-03-22T03:05:11.296Z,77.20
2019-03-22T03:07:39.808Z,77.20
2019-03-22T03:10:13.843Z,77.20
2019-03-22T03:12:42.653Z,77.30
2019-03-22T03:15:14.177Z,77.30
2019-03-22T03:17:42.726Z,77.30
2019-03-22T03:20:19.037Z,77.30
2019-03-22T03:22:47.562Z,77.20
2019-03-22T03:25:16.179Z,77.20
2019-03-22T03:27:44.694Z,77.30
2019-03-22T03:30:19.110Z,77.30
2019-03-22T03:32:47.704Z,77.20
2019-03-22T03:35:16.389Z,77.20
2019-03-22T03:37:44.925Z,77.20
2019-03-22T03:40:14.315Z,77.20
2019-03-22T03:42:42.808Z,77.10
2019-03-22T03:45:16.969Z,76.90
2019-03-22T03:47:45.415Z,77.00
2019-03-22T03:50:13.944Z,77.10
2019-03-22T03:52:42.423Z,77.20
2019-03-22T03:55:11.008Z,77.30
2019-03-22T03:57:39.471Z,77.30
2019-03-22T04:00:08.375Z,77.30
2019-03-22T04:02:36.828Z,77.30
2019-03-22T04:05:06.138Z,77.30
2019-03-22T04:07:34.632Z,77.30
2019-03-22T04:10:04.717Z,77.20
2019-03-22T04:12:33.171Z,77.20
2019-03-22T04:15:02.312Z,77.30
2019-03-22T04:17:30.766Z,77.30
2019-03-22T04:19:59.224Z,77.20
2019-03-22T04:22:27.697Z,77.30
2019-03-22T04:24:56.164Z,77.30
2019-03-22T04:27:24.615Z,77.40
2019-03-22T04:29:53.163Z,77.50
2019-03-22T04:32:21.655Z,77.50
2019-03-22T04:34:50.185Z,77.40
2019-03-22T04:37:18.708Z,77.30
2019-03-22T04:39:47.167Z,77.50
2019-03-22T04:42:15.616Z,77.50
2019-03-22T04:44:44.084Z,77.60
2019-03-22T04:47:15.415Z,77.60
2019-03-22T04:49:45.170Z,77.60
2019-03-22T04:52:14.667Z,77.50
2019-03-22T04:54:45.918Z,77.60
2019-03-22T04:57:16.123Z,77.50
2019-03-22T04:59:47.198Z,77.50
2019-03-22T05:02:16.603Z,77.50
2019-03-22T05:04:47.883Z,77.40
2019-03-22T05:07:17.290Z,77.50
2019-03-22T05:09:46.582Z,77.50
2019-03-22T05:12:18.143Z,77.50
2019-03-22T05:14:47.324Z,77.50
2019-03-22T05:17:16.347Z,77.40
2019-03-22T05:19:50.837Z,77.30
2019-03-22T05:22:21.491Z,77.40
2019-03-22T05:24:51.279Z,77.30
2019-03-22T05:27:21.176Z,77.30
2019-03-22T05:29:51.425Z,77.30
2019-03-22T05:32:19.863Z,77.40
2019-03-22T05:34:48.326Z,77.50
2019-03-22T05:37:16.815Z,77.60
2019-03-22T05:39:45.340Z,77.60
2019-03-22T05:42:13.900Z,77.60
2019-03-22T05:44:42.415Z,77.60
2019-03-22T05:47:10.871Z,77.60
2019-03-22T05:49:39.315Z,77.60
2019-03-22T05:52:07.789Z,77.60
2019-03-22T05:54:36.242Z,77.50
2019-03-22T05:57:13.249Z,77.50
2019-03-22T05:59:42.325Z,77.40
2019-03-22T06:02:05.514Z,77.30
2019-03-22T06:04:33.976Z,77.30
2019-03-22T06:07:02.424Z,77.30
2019-03-22T06:09:30.903Z,77.50
2019-03-22T06:11:59.435Z,77.60
2019-03-22T06:14:27.888Z,77.70
2019-03-22T06:16:56.428Z,77.80
2019-03-22T06:19:24.962Z,77.70
2019-03-22T06:21:53.428Z,77.80
2019-03-22T06:24:22.399Z,77.70
2019-03-22T06:26:51.112Z,77.70
2019-03-22T06:29:19.565Z,77.60
2019-03-22T06:31:48.015Z,77.50
2019-03-22T06:34:16.472Z,77.50
2019-03-22T06:36:44.940Z,77.40
2019-03-22T06:39:13.395Z,77.40
2019-03-22T06:41:41.854Z,77.40
2019-03-22T06:44:10.347Z,77.40
2019-03-22T06:46:38.815Z,77.50
2019-03-22T06:49:07.270Z,77.40
2019-03-22T06:51:35.797Z,77.40
2019-03-22T06:54:04.336Z,77.40
2019-03-22T06:56:32.792Z,77.30
2019-03-22T06:59:01.256Z,77.30
2019-03-22T07:01:29.724Z,77.10
2019-03-22T07:03:58.180Z,77.20
2019-03-22T07:06:26.623Z,77.20
2019-03-22T07:08:55.128Z,77.30
2019-03-22T07:11:23.563Z,77.20
2019-03-22T07:13:52.016Z,77.10
2019-03-22T07:16:20.541Z,77.20
2019-03-22T07:18:48.995Z,77.30
2019-03-22T07:21:17.445Z,77.50
2019-03-22T07:23:45.907Z,77.40
2019-03-22T07:26:14.363Z,77.60
2019-03-22T07:28:42.850Z,77.70
2019-03-22T07:31:11.295Z,77.60
2019-03-22T07:33:39.828Z,77.60
2019-03-22T07:36:08.292Z,77.70
2019-03-22T07:38:36.756Z,77.40
2019-03-22T07:41:05.420Z,77.30
2019-03-22T07:43:33.862Z,77.30
2019-03-22T07:46:02.335Z,77.30
2019-03-22T07:48:30.784Z,77.50
2019-03-22T07:50:59.266Z,77.40
2019-03-22T07:53:27.900Z,77.50
2019-03-22T07:55:56.882Z,77.30
2019-03-22T07:58:25.411Z,77.20
2019-03-22T08:00:53.866Z,77.20
2019-03-22T08:03:22.343Z,77.30
2019-03-22T08:05:51.597Z,77.40
2019-03-22T08:08:20.440Z,77.60
2019-03-22T08:10:48.944Z,77.50
2019-03-22T08:13:17.478Z,77.50
2019-03-22T08:15:45.946Z,77.30
2019-03-22T08:18:14.427Z,77.20
2019-03-22T08:20:43.152Z,77.10
2019-03-22T08:23:22.025Z,77.10
2019-03-22T08:25:50.616Z,77.00
2019-03-22T08:28:19.092Z,76.90
2019-03-22T08:30:47.612Z,77.00
2019-03-22T08:33:16.136Z,77.00
2019-03-22T08:35:44.652Z,77.00
2019-03-22T08:38:13.114Z,77.00
2019-03-22T08:40:41.603Z,77.10
2019-03-22T08:43:10.100Z,76.80
2019-03-22T08:45:38.587Z,77.00
2019-03-22T08:48:07.046Z,77.00
2019-03-22T08:50:35.498Z,77.00
2019-03-22T08:53:04.023Z,76.70
2019-03-22T08:55:32.462Z,76.40
2019-03-22T08:58:00.923Z,76.50
2019-03-22T09:00:39.232Z,77.30
2019-03-22T09:02:58.814Z,76.10
2019-03-22T09:05:27.291Z,75.50
2019-03-22T09:07:55.840Z,75.80
2019-03-22T09:10:24.471Z,75.80
2019-03-22T09:12:53.030Z,75.90
2019-03-22T09:15:21.538Z,76.00
2019-03-22T09:17:49.999Z,76.20
2019-03-22T09:20:18.480Z,76.20
2019-03-22T09:22:47.114Z,77.10
2019-03-22T09:25:15.661Z,76.20
2019-03-22T09:27:44.142Z,75.70
2019-03-22T09:30:14.355Z,75.70
2019-03-22T09:32:42.894Z,75.80
2019-03-22T09:35:11.484Z,75.70
2019-03-22T09:37:40.053Z,75.50
2019-03-22T09:40:08.835Z,75.50
2019-03-22T09:42:37.573Z,75.40
2019-03-22T09:45:08.081Z,75.00
2019-03-22T09:47:36.610Z,74.70
2019-03-22T09:50:10.880Z,74.60
2019-03-22T09:52:39.428Z,74.80
2019-03-22T09:55:13.976Z,74.70
2019-03-22T09:57:38.925Z,74.50
2019-03-22T10:00:10.815Z,74.70
2019-03-22T10:02:39.801Z,74.70
2019-03-22T10:05:08.415Z,74.50
2019-03-22T10:07:36.922Z,74.40
2019-03-22T10:10:06.468Z,74.30
2019-03-22T10:12:35.016Z,74.20
2019-03-22T10:15:05.077Z,74.00
2019-03-22T10:17:32.736Z,74.20
2019-03-22T10:20:01.211Z,73.20
2019-03-22T10:22:29.724Z,74.10
2019-03-22T10:24:58.327Z,75.00
2019-03-22T10:27:26.807Z,73.90
2019-03-22T10:29:55.261Z,73.80
2019-03-22T10:32:24.073Z,73.70
2019-03-22T10:34:52.707Z,74.00
2019-03-22T10:37:40.568Z,73.30
2019-03-22T10:40:09.085Z,73.10
2019-03-22T10:42:37.555Z,73.10
2019-03-22T10:45:07.609Z,72.90
2019-03-22T10:47:36.174Z,72.80
2019-03-22T10:50:06.385Z,73.00
2019-03-22T10:52:34.893Z,73.10
2019-03-22T10:55:17.746Z,72.80
2019-03-22T10:57:34.196Z,72.80
2019-03-22T11:00:03.530Z,72.70
2019-03-22T11:02:31.977Z,72.60
2019-03-22T11:05:02.138Z,72.60
2019-03-22T11:07:29.844Z,72.80
2019-03-22T11:09:59.137Z,72.30
2019-03-22T11:12:27.775Z,71.80
2019-03-22T11:14:56.268Z,71.50
2019-03-22T11:17:24.765Z,71.90
2019-03-22T11:19:53.216Z,72.10
2019-03-22T11:22:21.679Z,72.20
2019-03-22T11:24:50.153Z,72.20
2019-03-22T11:27:18.692Z,71.80
2019-03-22T11:29:47.215Z,70.20
2019-03-22T11:32:16.113Z,70.40
2019-03-22T11:34:45.026Z,71.10
2019-03-22T11:37:13.547Z,71.00
2019-03-22T11:39:42.120Z,71.30
2019-03-22T11:42:10.750Z,71.70
2019-03-22T11:44:39.229Z,70.00
2019-03-22T11:47:07.749Z,70.80
2019-03-22T11:49:36.199Z,70.50
2019-03-22T11:52:04.803Z,70.20
2019-03-22T11:54:33.255Z,70.10
2019-03-22T11:57:01.704Z,70.20
2019-03-22T11:59:30.152Z,70.10
2019-03-22T12:01:58.595Z,70.90
2019-03-22T12:04:27.056Z,71.00
2019-03-22T12:06:55.515Z,70.50
2019-03-22T12:09:24.002Z,70.20
2019-03-22T12:11:52.448Z,69.20
2019-03-22T12:14:20.922Z,68.90
2019-03-22T12:16:49.371Z,68.20
2019-03-22T12:19:17.858Z,66.20
2019-03-22T12:21:46.323Z,64.20
2019-03-22T12:24:14.776Z,62.70
2019-03-22T12:26:43.227Z,62.60
2019-03-22T12:29:11.680Z,60.50
2019-03-22T12:31:40.143Z,60.50
2019-03-22T12:34:08.609Z,60.50
2019-03-22T12:36:37.099Z,61.00
2019-03-22T12:39:07.691Z,60.90
2019-03-22T12:41:36.139Z,59.10
2019-03-22T12:44:04.699Z,59.70
2019-03-22T12:46:33.150Z,58.30
2019-03-22T12:49:01.603Z,58.10
2019-03-22T12:51:30.082Z,58.00
2019-03-22T12:54:00.634Z,57.70
2019-03-22T12:56:29.156Z,57.20
2019-03-22T12:58:57.631Z,57.30
2019-03-22T13:01:26.080Z,56.90
2019-03-22T13:03:54.598Z,57.30
2019-03-22T13:06:23.043Z,57.80
2019-03-22T13:08:51.500Z,57.70
2019-03-22T13:11:19.991Z,56.40
2019-03-22T13:13:48.466Z,54.40
2019-03-22T13:16:16.907Z,54.50
2019-03-22T13:18:50.118Z,54.30
2019-03-22T13:21:14.827Z,55.10
2019-03-22T13:23:43.308Z,54.60
2019-03-22T13:26:11.831Z,56.50
2019-03-22T13:28:40.308Z,55.60
2019-03-22T13:31:08.770Z,55.00
2019-03-22T13:33:37.238Z,54.40
2019-03-22T13:36:06.759Z,53.60
2019-03-22T13:38:35.203Z,53.90
2019-03-22T13:41:03.741Z,55.20
2019-03-22T13:43:32.190Z,54.40
2019-03-22T13:46:00.652Z,54.90
2019-03-22T13:48:29.237Z,54.70
2019-03-22T13:50:57.715Z,54.90
2019-03-22T13:53:26.164Z,55.30
2019-03-22T13:55:54.641Z,55.10
2019-03-22T13:58:23.145Z,53.50
2019-03-22T14:00:51.699Z,53.90
2019-03-22T14:03:20.150Z,53.90
2019-03-22T14:05:48.604Z,54.20
2019-03-22T14:08:17.074Z,54.20
2019-03-22T14:10:45.517Z,54.10
2019-03-22T14:13:14.054Z,54.70
2019-03-22T14:15:42.688Z,53.90
2019-03-22T14:18:11.175Z,53.20
2019-03-22T14:20:39.627Z,53.70
2019-03-22T14:23:08.110Z,52.20
2019-03-22T14:25:36.558Z,52.00
2019-03-22T14:28:05.035Z,51.90
2019-03-22T14:30:33.522Z,52.80
2019-03-22T14:33:02.039Z,53.10
2019-03-22T14:35:30.545Z,53.10
2019-03-22T14:37:59.019Z,52.50
2019-03-22T14:40:27.480Z,52.30
2019-03-22T14:42:55.936Z,53.00
2019-03-22T14:45:24.389Z,52.50
2019-03-22T14:47:52.846Z,52.70
2019-03-22T14:50:21.302Z,52.90
2019-03-22T14:52:49.806Z,53.30
2019-03-22T14:55:18.251Z,53.40
2019-03-22T14:57:50.156Z,53.00
2019-03-22T15:00:16.168Z,52.50
2019-03-22T15:02:44.611Z,54.50
2019-03-22T15:05:13.208Z,53.20
2019-03-22T15:07:41.651Z,53.30
2019-03-22T15:10:11.955Z,53.30
2019-03-22T15:12:40.402Z,53.00
2019-03-22T15:15:21.327Z,52.70
2019-03-22T15:18:07.942Z,52.90
2019-03-22T15:20:43.973Z,52.80
2019-03-22T15:23:30.475Z,52.30
2019-03-22T15:26:03.559Z,51.90
2019-03-22T15:28:49.842Z,51.90
2019-03-22T15:31:36.353Z,51.90
2019-03-22T15:34:06.535Z,51.90
2019-03-22T15:36:48.146Z,51.90
2019-03-22T15:39:34.621Z,52.20
2019-03-22T15:42:03.211Z,53.20
2019-03-22T15:44:31.673Z,53.30
2019-03-22T15:47:00.171Z,52.20
2019-03-22T15:49:28.656Z,52.90
2019-03-22T15:51:57.133Z,53.00
2019-03-22T15:54:25.611Z,53.30
2019-03-22T15:56:54.132Z,53.70
2019-03-22T15:59:42.002Z,53.40
2019-03-22T16:02:10.439Z,53.30
2019-03-22T16:04:38.959Z,53.30
2019-03-22T16:07:07.408Z,53.60
2019-03-22T16:09:35.878Z,53.20
2019-03-22T16:12:04.401Z,53.60
2019-03-22T16:14:32.881Z,53.90
2019-03-22T16:17:01.389Z,53.90
2019-03-22T16:19:29.874Z,54.10
2019-03-22T16:21:58.351Z,54.10
2019-03-22T16:24:26.804Z,54.60
2019-03-22T16:26:55.339Z,55.00
2019-03-22T16:29:23.866Z,55.40
2019-03-22T16:31:52.370Z,55.50
2019-03-22T16:34:20.823Z,55.70
2019-03-22T16:36:49.277Z,55.90
2019-03-22T16:39:17.732Z,56.10
2019-03-22T16:41:46.218Z,56.10
2019-03-22T16:44:14.741Z,56.00
2019-03-22T16:46:43.259Z,56.20
2019-03-22T16:49:11.710Z,56.20
2019-03-22T16:51:40.172Z,56.50
2019-03-22T16:54:08.622Z,56.80
2019-03-22T16:56:37.083Z,57.10
2019-03-22T16:59:05.535Z,57.40
2019-03-22T17:01:33.993Z,57.70
2019-03-22T17:04:04.567Z,58.10
2019-03-22T17:06:32.654Z,58.50
2019-03-22T17:09:02.210Z,58.80
2019-03-22T17:11:30.735Z,59.00
2019-03-22T17:13:59.183Z,59.40
2019-03-22T17:16:27.714Z,59.70
2019-03-22T17:18:56.176Z,60.00
2019-03-22T17:21:24.891Z,60.30
2019-03-22T17:23:53.368Z,60.60
2019-03-22T17:26:21.815Z,60.90
2019-03-22T17:28:50.287Z,61.20
2019-03-22T17:31:18.767Z,61.50
2019-03-22T17:33:47.341Z,61.70
2019-03-22T17:36:15.875Z,62.20
2019-03-22T17:38:44.407Z,62.50
2019-03-22T17:41:12.871Z,62.80
2019-03-22T17:43:41.417Z,63.20
2019-03-22T17:46:09.879Z,63.40
2019-03-22T17:48:38.331Z,64.40
2019-03-22T17:51:06.808Z,63.90
2019-03-22T17:53:35.254Z,64.10
2019-03-22T17:56:03.725Z,64.40
2019-03-22T17:58:32.184Z,64.60
2019-03-22T18:01:00.629Z,64.90
2019-03-22T18:03:29.086Z,65.20
2019-03-22T18:05:57.741Z,65.50
2019-03-22T18:08:26.188Z,65.80
2019-03-22T18:10:54.631Z,66.10
2019-03-22T18:13:23.099Z,66.50
2019-03-22T18:15:51.543Z,66.60
2019-03-22T18:18:20.041Z,66.80
2019-03-22T18:20:48.535Z,67.00
2019-03-22T18:23:16.990Z,67.20
2019-03-22T18:25:45.457Z,67.40
2019-03-22T18:28:13.892Z,67.70
2019-03-22T18:30:42.390Z,67.90
2019-03-22T18:33:10.831Z,68.20
2019-03-22T18:35:39.291Z,68.40
2019-03-22T18:38:07.774Z,68.70
2019-03-22T18:40:36.246Z,68.90
2019-03-22T18:43:04.699Z,69.20
2019-03-22T18:45:33.148Z,69.30
2019-03-22T18:48:01.724Z,69.60
2019-03-22T18:50:30.188Z,69.80
2019-03-22T18:52:58.666Z,70.00
2019-03-22T18:55:27.111Z,70.10
2019-03-22T18:57:55.596Z,70.30
2019-03-22T19:00:24.189Z,70.50
2019-03-22T19:02:52.702Z,70.70
2019-03-22T19:05:21.159Z,70.90
2019-03-22T19:07:49.621Z,71.30
2019-03-22T19:10:18.091Z,71.50
2019-03-22T19:12:46.571Z,71.60
2019-03-22T19:15:15.425Z,71.90
2019-03-22T19:17:43.877Z,72.10
2019-03-22T19:20:14.200Z,72.10
2019-03-22T19:22:42.796Z,72.30
2019-03-22T19:25:14.388Z,72.60
2019-03-22T19:27:43.119Z,72.90
2019-03-22T19:30:14.296Z,73.80
2019-03-22T19:32:42.846Z,73.20
2019-03-22T19:35:11.660Z,73.60
2019-03-22T19:37:40.217Z,73.80
2019-03-22T19:40:10.599Z,73.70
2019-03-22T19:42:39.046Z,74.10
2019-03-22T19:45:09.647Z,74.00
2019-03-22T19:47:38.113Z,74.90
2019-03-22T19:50:09.163Z,74.40
2019-03-22T19:52:37.660Z,74.50
2019-03-22T19:55:09.162Z,74.50
2019-03-22T19:57:38.083Z,74.60
2019-03-22T20:00:15.086Z,74.70
2019-03-22T20:02:43.527Z,74.80
2019-03-22T20:05:13.602Z,74.70
2019-03-22T20:07:41.267Z,74.50
2019-03-22T20:10:11.857Z,73.80
2019-03-22T20:12:40.578Z,74.20
2019-03-22T20:15:10.427Z,74.10
2019-03-22T20:17:38.923Z,74.20
2019-03-22T20:20:09.050Z,74.20
2019-03-22T20:22:37.544Z,74.00
2019-03-22T20:25:08.011Z,74.00
2019-03-22T20:27:35.698Z,73.80
2019-03-22T20:30:06.265Z,73.50
2019-03-22T20:32:34.856Z,73.60
2019-03-22T20:35:15.329Z,73.60
2019-03-22T20:37:35.027Z,73.70
2019-03-22T20:40:05.828Z,73.70
2019-03-22T20:42:34.282Z,73.70
2019-03-22T20:45:02.734Z,73.90
2019-03-22T20:47:31.199Z,73.90
2019-03-22T20:49:59.661Z,73.90
2019-03-22T20:52:28.128Z,74.00
2019-03-22T20:54:56.571Z,73.90
2019-03-22T20:57:25.039Z,74.00
2019-03-22T20:59:53.490Z,74.10
2019-03-22T21:02:22.036Z,74.10
2019-03-22T21:04:50.495Z,74.00
2019-03-22T21:07:19.001Z,74.20
2019-03-22T21:09:47.610Z,74.40
2019-03-22T21:12:16.131Z,74.50
2019-03-22T21:14:44.615Z,74.50
2019-03-22T21:17:13.072Z,74.70
2019-03-22T21:19:41.524Z,74.50
2019-03-22T21:22:09.987Z,74.60
2019-03-22T21:24:39.227Z,74.50
2019-03-22T21:27:15.421Z,74.50
2019-03-22T21:29:43.952Z,74.60
2019-03-22T21:32:08.065Z,74.50
2019-03-22T21:34:36.516Z,74.70
2019-03-22T21:37:05.012Z,74.60
2019-03-22T21:39:33.494Z,74.50
2019-03-22T21:42:01.948Z,74.50
2019-03-22T21:44:30.429Z,74.70
2019-03-22T21:46:58.922Z,74.70
2019-03-22T21:49:29.851Z,75.00
2019-03-22T21:51:57.672Z,75.10
2019-03-22T21:54:26.202Z,75.10
2019-03-22T21:56:54.686Z,75.30
2019-03-22T21:59:23.218Z,75.50
2019-03-22T22:01:51.681Z,75.70
2019-03-22T22:04:20.132Z,75.80
2019-03-22T22:06:48.599Z,75.60
2019-03-22T22:09:17.056Z,75.80
2019-03-22T22:11:45.545Z,76.10
2019-03-22T22:14:13.987Z,76.00
2019-03-22T22:16:42.445Z,76.00
2019-03-22T22:19:10.899Z,76.00
2019-03-22T22:21:39.347Z,76.10
2019-03-22T22:24:07.803Z,76.00
2019-03-22T22:26:36.274Z,76.10
2019-03-22T22:29:04.743Z,76.10
2019-03-22T22:31:33.231Z,76.10
2019-03-22T22:34:01.696Z,76.30
2019-03-22T22:36:30.152Z,76.20
2019-03-22T22:38:58.606Z,76.30
2019-03-22T22:41:27.103Z,76.50
2019-03-22T22:43:55.638Z,76.40
2019-03-22T22:46:24.151Z,76.40
2019-03-22T22:48:52.675Z,76.40
2019-03-22T22:51:21.145Z,76.40
2019-03-22T22:53:49.607Z,76.60
2019-03-22T22:56:18.071Z,76.70
2019-03-22T22:58:46.531Z,76.60
2019-03-22T23:01:14.987Z,76.70
2019-03-22T23:03:43.447Z,76.70
2019-03-22T23:06:11.908Z,76.70
2019-03-22T23:08:40.358Z,76.60
2019-03-22T23:11:08.875Z,76.60
2019-03-22T23:13:37.403Z,76.50
2019-03-22T23:16:05.901Z,76.70
2019-03-22T23:18:34.435Z,76.70
2019-03-22T23:21:02.900Z,76.60
2019-03-22T23:23:31.355Z,76.60
2019-03-22T23:25:59.850Z,76.60
2019-03-22T23:28:28.536Z,76.60
2019-03-22T23:30:57.829Z,76.60
2019-03-22T23:33:26.542Z,76.80
2019-03-22T23:35:55.037Z,77.10
2019-03-22T23:38:23.522Z,77.20
2019-03-22T23:40:51.972Z,77.30
2019-03-22T23:43:20.463Z,77.30
2019-03-22T23:45:49.060Z,77.50
2019-03-22T23:48:17.526Z,77.50
2019-03-22T23:50:46.009Z,77.40
2019-03-22T23:53:14.506Z,77.50
2019-03-22T23:55:43.018Z,77.50
2019-03-22T23:58:11.535Z,77.50
